Time;durP1;ratioP1;P1;durP2;ratioP2;P2;SDS_P1;SDS_P2;PMS_P1;PMS_P2;Temp;Humidity;BMP_temperature;BMP_pressure;BME280_temperature;BME280_humidity;BME280_pressure;Samples;Min_cycle;Max_cycle;Signal;HPM_P1;HPM_P2
2022/04/13 00:00:17;;;;;;;9.30;8.30;;;9.20;1.00;;;;;;6284057;22;20403;-86
2022/04/13 00:02:48;;;;;;;10.83;8.83;;;9.20;1.00;;;;;;6271402;22;20390;-86
2022/04/13 00:05:18;;;;;;;10.00;8.50;;;9.10;1.00;;;;;;6251123;22;20444;-84
2022/04/13 00:07:46;;;;;;;12.50;9.73;;;9.10;1.00;;;;;;6267824;22;20451;-87
2022/04/13 00:12:51;;;;;;;8.77;7.93;;;9.10;1.00;;;;;;6280956;22;20446;-84
2022/04/13 00:15:17;;;;;;;11.20;8.53;;;9.10;1.00;;;;;;6270361;22;20388;-84
2022/04/13 00:17:44;;;;;;;10.03;9.03;;;9.10;1.00;;;;;;6290916;22;20423;-84
2022/04/13 00:20:26;;;;;;;11.90;8.32;;;9.00;1.00;;;;;;6276825;22;20431;-85
2022/04/13 00:23:04;;;;;;;11.73;9.30;;;9.00;1.00;;;;;;6284638;22;20188;-85
2022/04/13 00:25:47;;;;;;;9.93;8.93;;;8.90;1.00;;;;;;6255566;22;20205;-84
2022/04/13 00:28:16;;;;;;;11.68;8.77;;;9.00;1.00;;;;;;6250743;22;20467;-84
2022/04/13 00:30:46;;;;;;;12.07;9.60;;;8.90;1.00;;;;;;6240426;22;20261;-84
2022/04/13 00:33:16;;;;;;;10.55;9.35;;;8.90;1.00;;;;;;6252614;22;20280;-85
2022/04/13 00:35:48;;;;;;;10.43;9.45;;;8.90;1.00;;;;;;6236898;22;21534;-84
2022/04/13 00:38:19;;;;;;;12.30;8.55;;;8.90;1.00;;;;;;6229513;22;20204;-84
2022/04/13 00:40:47;;;;;;;12.75;9.25;;;8.90;1.00;;;;;;6268777;22;20256;-86
2022/04/13 00:43:25;;;;;;;10.23;9.10;;;8.80;1.00;;;;;;6247934;22;20255;-84
2022/04/13 00:45:56;;;;;;;11.75;9.65;;;8.80;1.00;;;;;;6244695;22;20232;-84
2022/04/13 00:48:35;;;;;;;9.90;8.87;;;8.80;1.00;;;;;;6238816;22;20216;-86
2022/04/13 00:51:16;;;;;;;10.65;9.40;;;8.70;1.00;;;;;;6257498;22;20570;-85
2022/04/13 00:53:47;;;;;;;14.02;9.25;;;8.70;1.00;;;;;;6272508;22;20200;-85
2022/04/13 00:56:24;;;;;;;12.52;9.27;;;8.70;1.00;;;;;;6241841;22;20208;-86
2022/04/13 00:59:09;;;;;;;11.55;8.85;;;8.70;1.00;;;;;;6275860;22;20239;-83
2022/04/13 01:01:38;;;;;;;12.63;10.32;;;8.70;1.00;;;;;;6271444;22;20216;-85
2022/04/13 01:04:17;;;;;;;13.98;10.02;;;8.60;1.00;;;;;;6282400;22;20275;-86
2022/04/13 01:06:57;;;;;;;14.85;10.13;;;8.60;1.00;;;;;;6299637;22;20196;-85
2022/04/13 01:09:27;;;;;;;10.23;9.23;;;8.60;1.00;;;;;;6280638;22;20212;-85
2022/04/13 01:11:56;;;;;;;10.77;8.40;;;8.60;1.00;;;;;;6287613;22;20413;-85
2022/04/13 01:14:28;;;;;;;12.77;8.10;;;8.60;1.00;;;;;;6282973;22;20410;-83
2022/04/13 01:16:56;;;;;;;12.55;10.27;;;8.60;1.00;;;;;;6280420;22;20511;-85
2022/04/13 01:19:34;;;;;;;10.83;9.43;;;8.60;1.00;;;;;;6278499;22;20226;-84
2022/04/13 01:22:27;;;;;;;10.10;8.37;;;8.60;1.00;;;;;;6293116;22;20388;-84
2022/04/13 01:24:59;;;;;;;14.15;10.38;;;8.50;1.00;;;;;;6261592;22;20434;-84
2022/04/13 01:27:28;;;;;;;12.98;9.18;;;8.40;1.00;;;;;;6291734;22;20355;-85
2022/04/13 01:29:58;;;;;;;13.90;9.85;;;8.40;1.00;;;;;;6282760;22;20212;-86
2022/04/13 01:32:27;;;;;;;9.90;8.90;;;8.40;1.00;;;;;;6281351;22;20219;-85
2022/04/13 01:34:59;;;;;;;10.95;9.70;;;8.40;1.00;;;;;;6287853;22;20196;-84
2022/04/13 01:37:27;;;;;;;11.00;9.93;;;8.40;1.00;;;;;;6290957;22;20997;-85
2022/04/13 01:39:58;;;;;;;10.23;9.10;;;8.40;1.00;;;;;;6293273;22;20211;-83
2022/04/13 01:42:26;;;;;;;13.00;9.82;;;8.40;1.00;;;;;;6294212;22;20649;-87
2022/04/13 01:45:08;;;;;;;14.07;9.77;;;8.30;1.00;;;;;;6320680;22;20219;-86
2022/04/13 01:47:37;;;;;;;13.15;10.65;;;8.20;1.00;;;;;;6250977;22;20377;-86
2022/04/13 01:50:08;;;;;;;11.13;9.70;;;8.20;1.00;;;;;;6289563;22;20301;-84
2022/04/13 01:52:39;;;;;;;11.18;9.38;;;8.20;1.00;;;;;;6297090;22;20193;-84
2022/04/13 01:55:07;;;;;;;12.18;10.10;;;8.20;1.00;;;;;;6277966;22;20219;-85
2022/04/13 01:57:37;;;;;;;11.90;10.50;;;8.20;1.00;;;;;;6297690;22;20216;-83
2022/04/13 02:00:08;;;;;;;14.93;10.07;;;8.10;1.00;;;;;;6277248;22;20219;-82
2022/04/13 02:02:39;;;;;;;13.90;9.48;;;8.10;1.00;;;;;;6297137;22;20447;-86
2022/04/13 02:05:09;;;;;;;11.10;9.93;;;8.10;1.00;;;;;;6286283;22;20207;-84
2022/04/13 02:07:49;;;;;;;13.73;9.90;;;8.00;1.00;;;;;;6297193;22;20208;-84
2022/04/13 02:10:19;;;;;;;12.88;10.10;;;8.00;1.00;;;;;;6276335;22;20251;-85
2022/04/13 02:12:48;;;;;;;10.65;9.55;;;8.00;1.00;;;;;;6292499;22;20212;-86
2022/04/13 02:15:16;;;;;;;13.90;9.75;;;7.90;1.00;;;;;;6286101;22;20218;-85
2022/04/13 02:17:58;;;;;;;11.38;10.13;;;7.90;1.00;;;;;;6272642;22;20200;-85
2022/04/13 02:20:28;;;;;;;12.95;9.93;;;7.80;1.00;;;;;;6206522;22;20234;-85
2022/04/13 02:22:58;;;;;;;12.70;10.25;;;7.80;1.00;;;;;;6262637;22;20205;-84
2022/04/13 02:25:28;;;;;;;11.27;10.18;;;7.70;1.00;;;;;;6239464;22;20201;-84
2022/04/13 02:27:57;;;;;;;11.43;10.30;;;7.70;1.00;;;;;;6245098;22;20212;-84
2022/04/13 02:30:28;;;;;;;12.60;10.23;;;7.70;1.00;;;;;;6274375;22;20222;-83
2022/04/13 02:32:59;;;;;;;13.65;10.20;;;7.70;1.00;;;;;;6281301;22;20204;-84
2022/04/13 02:35:38;;;;;;;12.80;11.45;;;7.60;1.00;;;;;;6292075;22;20204;-84
2022/04/13 02:38:09;;;;;;;12.50;10.93;;;7.70;1.00;;;;;;6286281;22;20371;-84
2022/04/13 02:40:36;;;;;;;12.80;10.18;;;7.60;1.00;;;;;;6274297;22;20303;-83
2022/04/13 02:43:08;;;;;;;13.10;11.80;;;7.70;1.00;;;;;;6284427;22;20300;-84
2022/04/13 02:45:47;;;;;;;15.05;9.98;;;7.70;1.00;;;;;;6283471;22;20208;-84
2022/04/13 02:48:19;;;;;;;15.88;11.27;;;7.60;1.00;;;;;;6271996;22;20204;-84
2022/04/13 02:50:49;;;;;;;10.90;9.77;;;7.60;1.00;;;;;;6265266;22;20264;-84
2022/04/13 02:53:27;;;;;;;12.55;9.60;;;7.60;1.00;;;;;;6261548;22;20361;-87
2022/04/13 02:55:57;;;;;;;11.65;10.50;;;7.60;1.00;;;;;;6278337;22;20198;-86
2022/04/13 02:58:27;;;;;;;11.25;10.02;;;7.60;1.00;;;;;;6280619;22;20224;-84
2022/04/13 03:00:58;;;;;;;15.02;10.60;;;7.50;1.00;;;;;;6258197;22;20205;-85
2022/04/13 03:03:27;;;;;;;12.98;10.68;;;7.50;1.00;;;;;;6254143;22;20201;-85
2022/04/13 03:05:57;;;;;;;14.45;11.98;;;7.40;1.00;;;;;;6259966;22;20452;-87
2022/04/13 03:08:37;;;;;;;12.27;10.98;;;7.40;1.00;;;;;;6291348;22;20256;-85
2022/04/13 03:11:18;;;;;;;12.93;10.18;;;7.40;1.00;;;;;;6262264;22;20235;-86
2022/04/13 03:13:56;;;;;;;14.50;12.27;;;7.40;1.00;;;;;;6282197;22;20224;-85
2022/04/13 03:16:28;;;;;;;11.98;10.68;;;7.30;1.00;;;;;;6256774;22;20210;-83
2022/04/13 03:18:57;;;;;;;11.52;10.32;;;7.30;1.00;;;;;;6275106;22;20196;-85
2022/04/13 03:21:27;;;;;;;12.80;10.30;;;7.30;1.00;;;;;;6225179;22;20207;-82
2022/04/13 03:23:58;;;;;;;11.50;10.30;;;7.30;1.00;;;;;;6246409;22;20260;-84
2022/04/13 03:26:27;;;;;;;14.45;10.38;;;7.30;1.00;;;;;;6236834;22;20232;-84
2022/04/13 03:28:57;;;;;;;12.15;10.30;;;7.30;1.00;;;;;;6297633;22;20216;-85
2022/04/13 03:31:27;;;;;;;12.40;10.45;;;7.30;1.00;;;;;;6250941;22;20205;-85
2022/04/13 03:33:53;;;;;;;15.25;11.30;;;7.30;1.00;;;;;;6254003;22;20217;-83
2022/04/13 03:36:20;;;;;;;16.45;12.05;;;7.30;1.00;;;;;;6253212;22;20208;-84
2022/04/13 03:38:47;;;;;;;14.93;12.05;;;7.30;1.00;;;;;;6246688;22;20204;-84
2022/04/13 03:41:15;;;;;;;15.27;11.43;;;7.20;1.00;;;;;;6269639;22;20212;-82
2022/04/13 03:43:48;;;;;;;16.13;11.63;;;7.20;1.00;;;;;;6290256;22;20245;-87
2022/04/13 03:46:18;;;;;;;14.52;11.55;;;7.20;1.00;;;;;;6265506;22;20189;-85
2022/04/13 03:48:49;;;;;;;17.20;11.82;;;7.20;1.00;;;;;;6260021;22;20204;-84
2022/04/13 03:51:17;;;;;;;14.43;11.75;;;7.20;1.00;;;;;;6246929;22;20218;-86
2022/04/13 03:53:48;;;;;;;12.50;11.15;;;7.20;1.00;;;;;;6265751;22;20190;-84
2022/04/13 03:56:19;;;;;;;15.15;10.27;;;7.20;1.00;;;;;;6254475;22;20209;-81
2022/04/13 03:58:49;;;;;;;15.18;12.18;;;7.10;1.00;;;;;;6243276;22;20203;-84
2022/04/13 04:01:17;;;;;;;15.95;11.07;;;7.10;1.00;;;;;;6267657;22;20342;-84
2022/04/13 04:03:47;;;;;;;13.13;11.05;;;7.10;1.00;;;;;;6247176;22;20197;-85
2022/04/13 04:06:17;;;;;;;15.13;11.48;;;7.10;1.00;;;;;;6259260;22;20205;-84
2022/04/13 04:11:49;;;;;;;15.73;10.15;;;7.10;1.00;;;;;;6264566;22;20219;-83
2022/04/13 04:14:17;;;;;;;13.00;11.32;;;7.00;1.00;;;;;;6257763;22;20203;-85
2022/04/13 04:16:44;;;;;;;13.30;10.80;;;7.00;1.00;;;;;;6283413;22;20236;-83
2022/04/13 04:19:11;;;;;;;13.55;10.48;;;7.00;1.00;;;;;;6250428;22;20213;-83
2022/04/13 04:21:37;;;;;;;32.33;23.50;;;7.00;1.00;;;;;;6255041;22;21175;-84
2022/04/13 04:24:10;;;;;;;18.05;12.15;;;7.00;1.00;;;;;;6258416;22;20256;-85
2022/04/13 04:26:37;;;;;;;13.20;10.60;;;7.00;1.00;;;;;;6262196;22;20460;-84
2022/04/13 04:29:07;;;;;;;14.80;11.35;;;7.00;1.00;;;;;;6287215;22;20534;-83
2022/04/13 04:34:38;;;;;;;12.45;10.73;;;7.00;1.00;;;;;;6172553;23;20233;-85
2022/04/13 04:37:08;;;;;;;11.48;10.15;;;7.00;1.00;;;;;;6192527;22;20220;-84
2022/04/13 04:42:08;;;;;;;14.52;11.77;;;7.00;1.00;;;;;;6234229;22;20213;-84
2022/04/13 04:47:28;;;;;;;16.98;11.40;;;7.10;1.00;;;;;;6208653;22;20210;-80
2022/04/13 04:49:59;;;;;;;16.45;10.80;;;7.10;1.00;;;;;;6244410;22;20251;-85
2022/04/13 04:52:27;;;;;;;14.23;11.60;;;7.10;1.00;;;;;;6268105;22;20209;-85
2022/04/13 04:55:13;;;;;;;16.42;12.60;;;7.20;1.00;;;;;;6265230;22;20272;-83
2022/04/13 04:58:09;;;;;;;14.93;10.68;;;7.20;1.00;;;;;;6233356;22;20378;-82
2022/04/13 05:00:59;;;;;;;13.90;11.55;;;7.20;1.00;;;;;;6313265;22;20223;-77
2022/04/13 05:12:41;;;;;;;;;;;;;;;;;;;;;
2022/04/13 05:15:28;;;;;;;11.88;10.30;;;7.20;1.00;;;;;;6214590;22;38900;-78
2022/04/13 05:18:38;;;;;;;13.80;12.15;;;7.20;1.00;;;;;;6215789;22;20205;-78
2022/04/13 05:24:53;;;;;;;;;;;;;;;;;;;;;
2022/04/13 05:30:48;;;;;;;;;;;;;;;;;;;;;
2022/04/13 05:33:18;;;;;;;15.65;12.38;;;7.50;1.00;;;;;;6247059;22;40993;-78
2022/04/13 05:46:19;;;;;;;16.27;11.80;;;7.80;1.00;;;;;;6001252;23;20229;-77
2022/04/13 05:48:51;;;;;;;13.80;11.13;;;8.00;1.00;;;;;;6057366;23;20223;-78
2022/04/13 05:51:18;;;;;;;14.75;11.00;;;8.10;1.00;;;;;;6140330;23;20848;-76
2022/04/13 05:53:48;;;;;;;14.00;11.65;;;8.30;1.00;;;;;;6217023;22;20209;-77
2022/04/13 05:56:17;;;;;;;15.98;11.18;;;8.40;1.00;;;;;;6260701;22;20208;-77
2022/04/13 05:59:19;;;;;;;;;;;;;;;;;;;;;
2022/04/13 06:05:09;;;;;;;15.65;12.93;;;8.80;1.00;;;;;;6212506;22;20381;-78
2022/04/13 06:14:08;;;;;;;20.73;12.68;;;9.20;1.00;;;;;;6248311;22;20253;-77
2022/04/13 06:23:41;;;;;;;12.80;10.70;;;9.70;1.00;;;;;;6088295;23;20211;-77
2022/04/13 06:29:59;;;;;;;12.13;10.23;;;10.00;1.00;;;;;;6148217;22;20385;-79
2022/04/13 06:33:08;;;;;;;12.80;11.40;;;10.20;1.00;;;;;;6149051;23;20468;-76
2022/04/13 06:35:58;;;;;;;14.27;10.53;;;10.30;1.00;;;;;;6168198;23;20219;-77
2022/04/13 06:38:50;;;;;;;13.75;10.38;;;10.40;1.00;;;;;;6160045;22;20455;-78
2022/04/13 06:44:39;;;;;;;13.97;11.73;;;10.60;1.00;;;;;;6218402;22;20508;-76
2022/04/13 06:47:29;;;;;;;15.27;12.83;;;10.70;1.00;;;;;;6222000;22;20622;-78
2022/04/13 06:49:59;;;;;;;16.13;11.10;;;10.90;1.00;;;;;;6254007;22;20392;-77
2022/04/13 07:05:10;;;;;;;;;;;;;;;;;;;;;
2022/04/13 07:11:30;;;;;;;13.53;10.83;;;12.00;1.00;;;;;;6192387;22;20466;-76
2022/04/13 07:14:28;;;;;;;12.53;9.67;;;12.10;1.00;;;;;;6197136;22;20391;-78
2022/04/13 07:16:58;;;;;;;15.30;10.20;;;12.40;1.00;;;;;;6173039;22;20391;-76
2022/04/13 07:19:25;;;;;;;15.90;11.53;;;12.60;1.00;;;;;;6152533;22;20511;-76
2022/04/13 07:21:59;;;;;;;12.80;9.90;;;12.80;1.00;;;;;;6202687;22;20421;-77
2022/04/13 07:24:29;;;;;;;14.50;10.77;;;12.90;1.00;;;;;;6165783;22;20407;-77
2022/04/13 07:26:58;;;;;;;13.40;10.93;;;13.00;1.00;;;;;;6215817;22;20397;-77
2022/04/13 07:29:38;;;;;;;14.87;11.07;;;13.20;1.00;;;;;;6180979;22;20398;-77
2022/04/13 07:32:09;;;;;;;13.43;10.00;;;13.30;1.00;;;;;;6212847;22;20457;-77
2022/04/13 07:34:39;;;;;;;12.70;10.33;;;13.50;1.00;;;;;;6188212;22;20374;-78
2022/04/13 07:37:09;;;;;;;12.38;9.75;;;13.60;1.00;;;;;;6200866;22;20644;-78
2022/04/13 07:43:01;;;;;;;10.93;9.67;;;14.10;1.00;;;;;;6252832;22;20419;-78
2022/04/13 07:45:29;;;;;;;12.03;9.30;;;14.40;1.00;;;;;;6255704;22;20563;-78
2022/04/13 07:48:10;;;;;;;11.90;9.60;;;14.30;1.00;;;;;;6256820;22;20383;-77
2022/04/13 07:51:17;;;;;;;11.13;9.70;;;14.40;1.00;;;;;;6273160;22;20419;-77
2022/04/13 07:53:48;;;;;;;12.23;9.87;;;14.50;1.00;;;;;;6241407;22;20388;-77
2022/04/13 07:56:18;;;;;;;12.80;9.27;;;14.70;1.00;;;;;;6291124;22;20409;-77
2022/04/13 07:58:46;;;;;;;10.00;8.93;;;14.80;1.00;;;;;;6306685;22;21562;-79
2022/04/13 08:01:17;;;;;;;12.20;9.63;;;14.70;1.00;;;;;;6302846;22;20435;-77
2022/04/13 08:03:48;;;;;;;12.60;9.40;;;14.70;1.00;;;;;;6300777;22;20399;-76
2022/04/13 08:06:18;;;;;;;12.50;10.70;;;14.90;1.00;;;;;;6265838;22;20479;-77
2022/04/13 08:11:52;;;;;;;15.00;10.20;;;15.10;1.00;;;;;;6250275;22;20526;-77
2022/04/13 08:14:41;;;;;;;12.10;9.80;;;15.10;1.00;;;;;;6236650;22;20404;-78
2022/04/13 08:23:49;;;;;;;12.03;10.77;;;15.40;1.00;;;;;;6105231;23;20438;-75
2022/04/13 08:32:24;;;;;;;11.53;9.40;;;15.90;1.00;;;;;;6202242;22;21636;-76
2022/04/13 08:35:10;;;;;;;13.93;10.10;;;16.00;1.00;;;;;;6189441;23;20445;-77
2022/04/13 08:47:40;;;;;;;12.70;10.30;;;16.00;1.00;;;;;;6243566;22;20538;-77
2022/04/13 08:56:22;;;;;;;10.57;8.73;;;16.50;1.00;;;;;;6095442;23;20456;-78
2022/04/13 08:59:38;;;;;;;11.07;8.93;;;16.70;1.00;;;;;;6167385;23;20419;-78
2022/04/13 09:02:15;;;;;;;14.07;9.77;;;16.80;1.00;;;;;;6184193;23;20397;-78
2022/04/13 09:04:49;;;;;;;14.47;9.90;;;17.00;1.00;;;;;;6212552;22;20440;-78
2022/04/13 09:07:18;;;;;;;13.47;10.30;;;17.00;1.00;;;;;;6199236;23;20405;-78
2022/04/13 09:09:54;;;;;;;12.40;9.50;;;17.00;1.00;;;;;;6198710;23;20416;-77
2022/04/13 09:12:30;;;;;;;9.97;8.90;;;17.00;1.00;;;;;;6190532;23;21608;-77
2022/04/13 09:15:07;;;;;;;13.73;10.77;;;17.20;1.00;;;;;;6194609;22;20396;-78
2022/04/13 09:17:38;;;;;;;13.33;10.13;;;17.40;1.00;;;;;;6216695;22;20397;-78
2022/04/13 09:23:08;;;;;;;11.87;10.00;;;17.80;1.00;;;;;;6219143;22;20413;-77
2022/04/13 09:25:41;;;;;;;15.33;10.53;;;17.90;1.00;;;;;;6190934;22;20430;-78
2022/04/13 09:28:08;;;;;;;10.67;9.37;;;18.60;1.00;;;;;;6221463;22;21293;-77
2022/04/13 09:34:27;;;;;;;13.00;9.97;;;20.70;1.00;;;;;;6184018;22;20416;-77
2022/04/13 09:40:11;;;;;;;10.87;9.77;;;23.10;1.00;;;;;;5922769;24;20426;-78
2022/04/13 09:42:51;;;;;;;13.10;9.90;;;23.80;1.00;;;;;;5981861;23;21011;-78
2022/04/13 09:45:19;;;;;;;11.03;9.07;;;24.20;1.00;;;;;;6107198;23;20392;-79
2022/04/13 09:47:49;;;;;;;13.10;10.53;;;24.50;1.00;;;;;;6198772;22;20400;-78
2022/04/13 09:50:39;;;;;;;10.90;9.70;;;25.20;1.00;;;;;;6233972;22;20385;-79
2022/04/13 09:56:01;;;;;;;10.93;9.77;;;25.50;1.00;;;;;;6253151;22;20471;-79
2022/04/13 09:58:34;;;;;;;12.60;9.17;;;25.60;1.00;;;;;;6247340;22;20464;-78
2022/04/13 10:01:06;;;;;;;12.20;8.60;;;25.40;1.00;;;;;;6238651;22;20452;-76
2022/04/13 10:03:58;;;;;;;9.90;8.90;;;25.60;1.00;;;;;;6245807;22;20412;-76
2022/04/13 10:06:29;;;;;;;11.70;9.33;;;25.90;1.00;;;;;;6232705;22;20806;-76
2022/04/13 10:09:00;;;;;;;10.20;9.10;;;26.60;1.00;;;;;;6249465;22;20389;-78
2022/04/13 10:11:31;;;;;;;9.73;8.70;;;26.60;1.00;;;;;;6247393;22;20458;-76
2022/04/13 10:14:09;;;;;;;11.70;9.17;;;27.00;1.00;;;;;;6245615;22;20450;-76
2022/04/13 10:16:39;;;;;;;10.73;9.60;;;26.60;1.00;;;;;;6252919;22;20395;-76
2022/04/13 10:19:08;;;;;;;10.80;9.03;;;26.10;1.00;;;;;;6245204;22;20629;-77
2022/04/13 10:21:41;;;;;;;9.10;8.20;;;25.40;1.00;;;;;;6247804;22;20365;-78
2022/04/13 10:24:10;;;;;;;11.30;9.80;;;25.80;1.00;;;;;;6235199;22;20403;-78
2022/04/13 10:26:42;;;;;;;9.57;8.57;;;26.20;1.00;;;;;;6243834;22;20452;-79
2022/04/13 10:29:20;;;;;;;9.27;8.27;;;26.30;1.00;;;;;;6244860;22;20458;-78
2022/04/13 10:32:10;;;;;;;10.30;9.00;;;26.60;1.00;;;;;;6237140;22;20471;-78
2022/04/13 10:34:40;;;;;;;10.23;8.80;;;27.00;1.00;;;;;;6240187;22;20439;-77
2022/04/13 10:37:15;;;;;;;11.50;9.10;;;26.80;1.00;;;;;;6231452;22;20397;-77
2022/04/13 10:46:21;;;;;;;12.70;9.37;;;26.50;1.00;;;;;;6110444;22;20426;-77
2022/04/13 10:49:20;;;;;;;9.43;7.60;;;27.30;1.00;;;;;;6134384;22;20393;-76
2022/04/13 10:51:58;;;;;;;10.07;8.00;;;27.50;1.00;;;;;;6175736;22;20418;-77
2022/04/13 10:55:19;;;;;;;11.87;8.87;;;27.30;1.00;;;;;;6194827;22;20371;-77
2022/04/13 11:04:50;;;;;;;9.03;8.13;;;27.20;1.00;;;;;;6054686;23;20406;-77
2022/04/13 11:10:21;;;;;;;10.67;8.97;;;28.90;1.00;;;;;;6093084;23;20566;-77
2022/04/13 11:12:50;;;;;;;11.40;7.67;;;29.50;1.00;;;;;;6130553;23;20400;-77
2022/04/13 11:15:39;;;;;;;10.03;8.57;;;30.00;1.00;;;;;;6159203;22;20409;-77
2022/04/13 11:18:18;;;;;;;9.10;8.20;;;29.90;1.00;;;;;;6219264;22;20401;-77
2022/04/13 11:21:10;;;;;;;8.77;7.87;;;29.50;1.00;;;;;;6182585;22;20409;-77
2022/04/13 11:23:51;;;;;;;10.30;9.07;;;29.30;1.00;;;;;;6157205;22;20432;-76
2022/04/13 11:26:59;;;;;;;10.70;8.57;;;30.00;1.00;;;;;;6184958;22;20405;-76
2022/04/13 11:29:41;;;;;;;10.37;7.80;;;30.30;1.00;;;;;;6210176;22;20426;-78
2022/04/13 11:32:12;;;;;;;11.77;8.57;;;29.90;1.00;;;;;;6179606;22;20457;-76
2022/04/13 11:35:00;;;;;;;10.93;8.40;;;30.00;1.00;;;;;;6189697;22;20448;-76
2022/04/13 11:37:42;;;;;;;11.90;8.40;;;30.50;1.00;;;;;;6216863;22;20491;-77
2022/04/13 11:40:18;;;;;;;9.10;8.03;;;30.60;1.00;;;;;;6173832;22;20425;-78
2022/04/13 11:43:01;;;;;;;8.60;7.67;;;31.10;1.00;;;;;;6202888;22;20420;-77
2022/04/13 11:45:30;;;;;;;9.33;7.10;;;31.90;1.00;;;;;;6183535;22;20668;-76
2022/04/13 11:47:59;;;;;;;8.47;7.47;;;32.00;1.00;;;;;;6175550;22;20548;-77
2022/04/13 11:50:59;;;;;;;8.30;7.50;;;31.90;1.00;;;;;;6205150;22;20399;-79
2022/04/13 12:00:28;;;;;;;12.97;8.20;;;33.30;1.00;;;;;;6179630;22;20916;-78
2022/04/13 12:06:12;;;;;;;10.23;8.80;;;33.40;1.00;;;;;;6210114;22;21583;-77
2022/04/13 12:16:21;;;;;;;8.10;7.17;;;35.80;1.00;;;;;;6190711;23;20399;-78
2022/04/13 12:22:22;;;;;;;8.70;7.27;;;36.20;1.00;;;;;;6265338;22;21125;-79
2022/04/13 12:25:10;;;;;;;9.13;8.23;;;35.40;1.00;;;;;;6283250;22;21209;-77
2022/04/13 12:28:02;;;;;;;8.43;7.53;;;35.10;1.00;;;;;;6288706;22;20375;-78
2022/04/13 12:30:29;;;;;;;7.50;6.77;;;35.50;1.00;;;;;;6258424;22;20447;-78
2022/04/13 12:32:59;;;;;;;11.87;10.37;;;35.40;1.00;;;;;;6288266;22;20408;-77
2022/04/13 12:36:20;;;;;;;7.33;6.60;;;35.20;1.00;;;;;;6233743;22;20420;-77
2022/04/13 12:39:31;;;;;;;9.37;7.57;;;35.00;1.00;;;;;;6187442;22;20428;-77
2022/04/13 12:52:30;;;;;;;8.90;7.30;;;34.70;1.00;;;;;;6162507;22;20497;-76
2022/04/13 12:55:33;;;;;;;8.27;7.00;;;34.40;1.00;;;;;;6252096;22;20412;-78
2022/04/13 13:05:09;;;;;;;6.07;5.40;;;33.40;1.00;;;;;;6143680;23;20530;-78
2022/04/13 13:11:30;;;;;;;9.03;5.60;;;33.80;1.00;;;;;;6134989;23;21204;-76
2022/04/13 13:20:31;;;;;;;7.17;6.27;;;32.60;1.00;;;;;;6094391;22;21480;-76
2022/04/13 13:23:20;;;;;;;6.87;6.10;;;32.70;1.00;;;;;;6170445;22;20392;-76
2022/04/13 13:26:02;;;;;;;5.80;4.95;;;32.20;1.00;;;;;;6078680;23;20532;-77
2022/04/13 13:29:16;;;;;;;8.00;5.60;;;32.10;1.00;;;;;;6064734;23;20784;-78
2022/04/13 13:38:07;;;;;;;5.77;4.87;;;30.20;1.00;;;;;;6013993;23;20553;-79
2022/04/13 13:40:42;;;;;;;6.33;4.63;;;29.80;1.00;;;;;;6146811;23;20897;-77
2022/04/13 13:43:12;;;;;;;6.63;4.60;;;29.40;1.00;;;;;;6216133;22;20388;-77
2022/04/13 13:45:41;;;;;;;6.77;4.63;;;28.80;1.00;;;;;;6218304;22;20381;-77
2022/04/13 13:48:11;;;;;;;5.70;4.90;;;28.30;1.00;;;;;;6197250;22;21218;-78
2022/04/13 13:50:42;;;;;;;5.10;4.60;;;27.80;1.00;;;;;;6212189;22;20405;-78
2022/04/13 13:53:13;;;;;;;5.20;4.70;;;27.70;1.00;;;;;;6206782;22;20400;-77
2022/04/13 13:55:43;;;;;;;7.07;4.50;;;27.70;1.00;;;;;;6214472;22;20397;-78
2022/04/13 13:58:10;;;;;;;5.13;4.40;;;27.70;1.00;;;;;;6214061;22;20421;-78
2022/04/13 14:00:41;;;;;;;8.93;5.47;;;27.80;1.00;;;;;;6217960;22;20369;-78
2022/04/13 14:03:09;;;;;;;6.97;4.90;;;28.40;1.00;;;;;;6215965;22;20460;-77
2022/04/13 14:05:41;;;;;;;7.27;4.73;;;28.90;1.00;;;;;;6205528;22;20437;-78
2022/04/13 14:08:12;;;;;;;4.67;4.17;;;29.60;1.00;;;;;;6213520;22;20441;-79
2022/04/13 14:10:41;;;;;;;5.90;4.47;;;30.00;1.00;;;;;;6219295;22;20378;-77
2022/04/13 14:13:13;;;;;;;4.90;4.40;;;29.90;1.00;;;;;;6195639;22;20938;-78
2022/04/13 14:15:47;;;;;;;5.80;4.63;;;29.80;1.00;;;;;;6147777;22;20591;-78
2022/04/13 14:18:29;;;;;;;7.27;4.07;;;29.90;1.00;;;;;;6180569;23;20405;-78
2022/04/13 14:21:04;;;;;;;5.43;4.30;;;29.70;1.00;;;;;;6180150;23;20465;-78
2022/04/13 14:23:42;;;;;;;6.30;5.60;;;29.40;1.00;;;;;;6159865;23;20398;-79
2022/04/13 14:26:11;;;;;;;4.73;4.10;;;29.00;1.00;;;;;;6183311;23;20506;-77
2022/04/13 14:28:54;;;;;;;6.17;5.57;;;28.40;1.00;;;;;;6184476;23;20418;-79
2022/04/13 14:31:30;;;;;;;5.17;3.87;;;28.10;1.00;;;;;;6174302;23;20422;-78
2022/04/13 14:34:02;;;;;;;6.50;4.47;;;27.90;1.00;;;;;;6166800;23;20389;-78
2022/04/13 14:36:37;;;;;;;6.57;4.07;;;27.20;1.00;;;;;;6161524;22;21531;-79
2022/04/13 14:45:01;;;;;;;4.20;3.80;;;26.80;1.00;;;;;;6221366;22;20406;-77
2022/04/13 14:54:21;;;;;;;;;;;;;;;;;;;;;
2022/04/13 15:14:51;;;;;;;3.50;2.70;;;25.10;1.00;;;;;;6127921;22;20458;-77
2022/04/13 15:17:29;;;;;;;6.10;3.57;;;24.90;1.00;;;;;;6204983;22;20428;-78
2022/04/13 15:19:56;;;;;;;6.53;4.00;;;25.10;1.00;;;;;;6250229;22;20453;-79
2022/04/13 15:22:31;;;;;;;4.50;4.07;;;24.90;1.00;;;;;;6223440;22;20420;-79
2022/04/13 15:25:10;;;;;;;;;;;;;;;;;;;;;
2022/04/13 15:27:51;;;;;;;6.33;4.20;;;24.50;1.00;;;;;;6182077;23;50966;-78
2022/04/13 15:30:40;;;;;;;4.77;4.27;;;24.40;1.00;;;;;;6139315;23;20410;-77
2022/04/13 15:33:17;;;;;;;4.40;3.77;;;24.30;1.00;;;;;;6170424;23;20397;-78
2022/04/13 15:44:51;;;;;;;3.93;3.40;;;24.00;1.00;;;;;;6221600;22;20415;-77
2022/04/13 15:51:20;;;;;;;4.83;3.50;;;23.70;1.00;;;;;;6185173;22;20396;-77
2022/04/13 15:53:58;;;;;;;4.00;3.33;;;23.70;1.00;;;;;;6239916;22;20395;-77
2022/04/13 15:56:30;;;;;;;5.63;3.13;;;23.70;1.00;;;;;;6246369;22;20438;-78
2022/04/13 15:59:03;;;;;;;3.90;2.97;;;23.60;1.00;;;;;;6228065;22;20388;-78
2022/04/13 16:01:34;;;;;;;6.87;3.83;;;23.70;1.00;;;;;;6242703;22;20436;-77
2022/04/13 16:04:10;;;;;;;3.90;2.60;;;23.70;1.00;;;;;;6242964;22;20433;-78
2022/04/13 16:06:40;;;;;;;3.30;2.90;;;23.60;1.00;;;;;;6246014;22;20395;-78
2022/04/13 16:09:07;;;;;;;7.40;3.50;;;23.60;1.00;;;;;;6242601;22;21294;-79
2022/04/13 16:11:42;;;;;;;4.70;3.27;;;23.70;1.00;;;;;;6247393;22;20783;-80
2022/04/13 16:14:32;;;;;;;4.10;3.00;;;23.70;1.00;;;;;;6249886;22;20651;-77
2022/04/13 16:17:13;;;;;;;5.10;3.30;;;23.70;1.00;;;;;;6282480;22;20409;-78
2022/04/13 16:19:43;;;;;;;5.10;2.77;;;23.60;1.00;;;;;;6229179;22;20399;-79
2022/04/13 16:24:59;;;;;;;8.83;4.43;;;23.60;1.00;;;;;;6253910;22;20447;-76
2022/04/13 16:27:30;;;;;;;3.93;3.40;;;23.60;1.00;;;;;;6244444;22;20396;-79
2022/04/13 16:38:32;;;;;;;;;;;;;;;;;;;;;
2022/04/13 17:06:43;;;;;;;12.90;5.93;;;23.00;1.00;;;;;;6163494;23;20438;-78
2022/04/13 17:19:51;;;;;;;5.17;3.60;;;22.40;1.00;;;;;;6115741;23;20434;-78
2022/04/13 17:22:22;;;;;;;4.60;3.50;;;22.30;1.00;;;;;;6249614;22;20387;-78
2022/04/13 17:28:52;;;;;;;4.40;3.63;;;22.10;1.00;;;;;;6206477;22;20412;-77
2022/04/13 17:47:20;;;;;;;;;;;;;;;;;;;;;
2022/04/13 17:50:48;;;;;;;9.90;6.50;;;21.20;1.00;;;;;;6153235;22;50634;-78
2022/04/13 17:54:03;;;;;;;10.80;5.83;;;21.10;1.00;;;;;;6236186;22;20389;-78
2022/04/13 18:06:21;;;;;;;11.90;6.37;;;20.50;1.00;;;;;;6051046;23;20452;-77
2022/04/13 19:48:51;;;;;;;15.48;9.82;;;17.40;1.00;;;;;;5886339;22;6466064;-80
2022/04/13 19:51:19;;;;;;;11.70;10.47;;;17.30;1.00;;;;;;6284775;22;20273;-78
2022/04/13 19:53:51;;;;;;;13.60;11.40;;;17.30;1.00;;;;;;6274367;22;20382;-77
2022/04/13 19:56:23;;;;;;;13.03;9.77;;;17.30;1.00;;;;;;6284697;22;20407;-78
2022/04/13 19:58:52;;;;;;;9.40;8.43;;;17.20;1.00;;;;;;6294948;22;20429;-78
2022/04/13 20:01:23;;;;;;;11.07;9.30;;;17.20;1.00;;;;;;6247464;22;20384;-76
2022/04/13 20:03:51;;;;;;;10.47;9.43;;;17.10;1.00;;;;;;6280332;22;20452;-76
2022/04/13 20:06:22;;;;;;;9.67;8.77;;;17.10;1.00;;;;;;6282376;22;20421;-76
2022/04/13 20:08:54;;;;;;;15.50;12.43;;;17.10;1.00;;;;;;6309578;22;20405;-77
2022/04/13 20:11:37;;;;;;;11.40;10.17;;;17.00;1.00;;;;;;6318760;22;20390;-78
2022/04/13 20:14:11;;;;;;;11.23;9.77;;;17.00;1.00;;;;;;6288459;22;20400;-77
2022/04/13 20:17:33;;;;;;;;;;;;;;;;;;;;;
2022/04/13 20:26:17;;;;;;;12.63;11.33;;;16.90;1.00;;;;;;6260831;22;21535;-76
2022/04/13 20:44:21;;;;;;;11.37;10.30;;;16.60;1.00;;;;;;6130297;23;20382;-78
2022/04/13 20:53:14;;;;;;;;;;;;;;;;;;;;;
2022/04/13 21:03:03;;;;;;;13.23;11.63;;;16.30;1.00;;;;;;6116353;23;20430;-76
2022/04/13 21:05:48;;;;;;;13.60;11.43;;;16.20;1.00;;;;;;6157817;23;20390;-76
2022/04/13 21:08:28;;;;;;;12.47;11.17;;;16.20;1.00;;;;;;6141939;23;20447;-77
2022/04/13 21:11:07;;;;;;;12.60;10.00;;;16.10;1.00;;;;;;6248461;22;21313;-76
2022/04/13 21:13:39;;;;;;;15.80;11.90;;;16.10;1.00;;;;;;6298856;22;20433;-77
2022/04/13 21:16:07;;;;;;;12.60;11.33;;;16.00;1.00;;;;;;6312625;22;20398;-77
2022/04/13 21:18:36;;;;;;;11.27;10.17;;;15.90;1.00;;;;;;6319286;22;20394;-79
2022/04/13 21:21:07;;;;;;;11.20;10.10;;;15.90;1.00;;;;;;6312614;22;20402;-77